Terminal Aerodrome Forecast
Issued by NWS

Current Version | Previous Version | Text Only | Print | Product List | Glossary On
Versions: 1 2 3 4 5 6 7 8 9 10 11 12 13 14
000
FTUS42 KMLB 210001 AAA
TAFSUA
TAF AMD
KSUA 210001Z 2100/2124 08012KT P6SM VCSH SCT025 SCT035
     FM211400 09012G18KT P6SM SCT025 SCT040
     FM211800 09014G20KT P6SM VCSH SCT030 BKN050=

USA.gov is the U.S. government's official web portal to all federal, state and local government web resources and services.